createdAt,value
2019-02-16T00:00:45.146Z,93.30
2019-02-16T00:06:47.355Z,93.20
2019-02-16T00:12:49.620Z,93.00
2019-02-16T00:18:51.782Z,92.90
2019-02-16T00:24:53.974Z,93.10
2019-02-16T00:30:56.149Z,92.70
2019-02-16T00:36:58.383Z,92.50
2019-02-16T00:43:00.750Z,92.90
2019-02-16T00:49:02.995Z,92.90
2019-02-16T00:55:07.144Z,92.50
2019-02-16T01:01:09.360Z,92.50
2019-02-16T01:07:11.615Z,92.90
2019-02-16T01:13:13.975Z,93.10
2019-02-16T01:19:16.108Z,93.50
2019-02-16T01:25:18.345Z,93.40
2019-02-16T01:31:20.624Z,92.90
2019-02-16T01:37:22.967Z,93.00
2019-02-16T01:43:25.133Z,92.80
2019-02-16T01:49:27.270Z,92.90
2019-02-16T01:55:29.456Z,92.80
2019-02-16T02:01:33.269Z,92.30
2019-02-16T02:07:35.439Z,92.40
2019-02-16T02:13:37.707Z,92.80
2019-02-16T02:19:39.855Z,93.10
2019-02-16T02:25:42.065Z,93.30
2019-02-16T02:31:45.858Z,93.20
2019-02-16T02:37:48.127Z,92.70
2019-02-16T02:43:50.492Z,92.50
2019-02-16T02:49:52.896Z,92.60
2019-02-16T02:55:55.064Z,92.50
2019-02-16T03:01:57.221Z,92.30
2019-02-16T03:08:00.639Z,92.70
2019-02-16T03:14:02.912Z,92.70
2019-02-16T03:20:05.327Z,92.50
2019-02-16T03:26:42.134Z,92.70
2019-02-16T03:33:16.681Z,93.00
2019-02-16T03:39:22.023Z,93.30
2019-02-16T03:45:24.266Z,93.20
2019-02-16T03:51:26.467Z,93.20
2019-02-16T03:57:28.704Z,93.20
2019-02-16T04:03:30.948Z,93.40
2019-02-16T04:09:33.323Z,93.60
2019-02-16T04:15:35.609Z,93.20
2019-02-16T04:21:37.797Z,93.10
2019-02-16T04:27:40.051Z,93.10
2019-02-16T04:33:42.548Z,93.60
2019-02-16T04:39:44.728Z,93.60
2019-02-16T04:45:47.237Z,93.20
2019-02-16T04:51:49.530Z,93.30
2019-02-16T04:57:51.807Z,93.80
2019-02-16T05:03:54.306Z,93.60
2019-02-16T05:09:56.616Z,93.50
2019-02-16T05:16:00.174Z,94.10
2019-02-16T05:22:02.373Z,93.30
2019-02-16T05:28:04.580Z,93.70
2019-02-16T05:34:06.776Z,93.60
2019-02-16T05:40:08.987Z,93.50
2019-02-16T05:46:11.403Z,93.50
2019-02-16T05:52:13.677Z,93.30
2019-02-16T05:58:15.876Z,93.20
2019-02-16T06:04:18.482Z,93.10
2019-02-16T06:10:20.767Z,93.20
2019-02-16T06:16:23.056Z,93.20
2019-02-16T06:22:25.355Z,93.00
2019-02-16T06:28:28.723Z,92.70
2019-02-16T06:34:32.463Z,93.00
2019-02-16T06:40:34.752Z,92.60
2019-02-16T06:46:36.920Z,92.60
2019-02-16T06:52:39.138Z,92.60
2019-02-16T06:58:41.337Z,93.40
2019-02-16T07:04:43.567Z,93.70
2019-02-16T07:10:45.732Z,93.50
2019-02-16T07:16:55.994Z,92.90
2019-02-16T07:23:00.343Z,92.60
2019-02-16T07:29:02.709Z,92.30
2019-02-16T07:35:05.730Z,92.10
2019-02-16T07:41:07.993Z,91.30
2019-02-16T07:47:15.074Z,90.90
2019-02-16T07:53:34.601Z,90.90
2019-02-16T07:59:56.859Z,90.20
2019-02-16T08:06:10.204Z,89.00
2019-02-16T08:12:14.334Z,88.30
2019-02-16T08:18:18.431Z,88.20
2019-02-16T08:24:22.660Z,74.00
2019-02-16T08:30:26.808Z,74.90
2019-02-16T08:36:42.193Z,78.00
2019-02-16T08:42:46.444Z,69.10
2019-02-16T08:48:53.533Z,61.00
2019-02-16T08:55:00.824Z,67.10
2019-02-16T09:01:13.943Z,62.20
2019-02-16T09:07:18.002Z,58.50
2019-02-16T09:13:22.036Z,56.50
2019-02-16T09:19:26.179Z,56.40
2019-02-16T09:25:32.509Z,56.20
2019-02-16T09:31:48.820Z,53.00
2019-02-16T09:37:53.000Z,54.10
2019-02-16T09:44:12.262Z,52.40
2019-02-16T09:50:22.392Z,52.80
2019-02-16T09:56:35.730Z,54.00
2019-02-16T10:02:56.281Z,53.90
2019-02-16T10:09:09.416Z,51.60
2019-02-16T10:15:28.777Z,51.80
2019-02-16T10:21:35.796Z,52.20
2019-02-16T10:27:56.637Z,51.00
2019-02-16T10:34:12.806Z,51.30
2019-02-16T10:40:19.863Z,51.30
2019-02-16T10:46:40.498Z,51.10
2019-02-16T10:52:53.651Z,49.70
2019-02-16T10:59:14.637Z,50.80
2019-02-16T11:05:21.736Z,50.60
2019-02-16T11:11:35.033Z,51.70
2019-02-16T11:17:39.222Z,51.60
2019-02-16T11:23:45.362Z,51.50
2019-02-16T11:29:54.346Z,50.10
2019-02-16T11:36:10.552Z,52.00
2019-02-16T11:42:31.472Z,51.10
2019-02-16T11:48:53.855Z,51.40
2019-02-16T11:54:58.145Z,49.60
2019-02-16T12:01:05.130Z,48.10
2019-02-16T12:07:27.572Z,47.20
2019-02-16T12:13:31.744Z,47.10
2019-02-16T12:19:35.834Z,48.20
2019-02-16T12:25:56.712Z,48.60
2019-02-16T12:32:15.503Z,50.20
2019-02-16T12:38:25.250Z,51.00
2019-02-16T12:44:35.353Z,49.90
2019-02-16T12:50:56.199Z,49.10
2019-02-16T12:57:02.441Z,50.20
2019-02-16T13:03:18.948Z,49.60
2019-02-16T13:09:40.393Z,50.10
2019-02-16T13:15:56.387Z,50.70
2019-02-16T13:22:01.379Z,48.20
2019-02-16T13:28:23.795Z,50.00
2019-02-16T13:34:28.956Z,48.70
2019-02-16T13:40:39.022Z,49.00
2019-02-16T13:46:43.220Z,50.10
2019-02-16T13:52:47.383Z,50.60
2019-02-16T13:58:54.465Z,49.60
2019-02-16T14:04:58.625Z,50.40
2019-02-16T14:11:29.383Z,49.80
2019-02-16T14:17:36.254Z,49.30
2019-02-16T14:23:38.545Z,49.60
2019-02-16T14:29:40.802Z,48.50
2019-02-16T14:35:43.287Z,49.10
2019-02-16T14:41:45.519Z,49.30
2019-02-16T14:47:47.889Z,49.50
2019-02-16T14:53:50.108Z,49.90
2019-02-16T14:59:52.345Z,50.20
2019-02-16T15:05:56.004Z,49.80
2019-02-16T15:11:58.432Z,50.10
2019-02-16T15:18:00.822Z,50.70
2019-02-16T15:24:03.167Z,51.80
2019-02-16T15:30:08.882Z,51.60
2019-02-16T15:36:11.287Z,52.50
2019-02-16T15:42:15.776Z,52.70
2019-02-16T15:48:20.141Z,53.50
2019-02-16T15:54:22.358Z,56.30
2019-02-16T16:00:28.334Z,57.60
2019-02-16T16:06:31.677Z,58.40
2019-02-16T16:12:44.702Z,61.00
2019-02-16T16:18:55.218Z,63.40
2019-02-16T16:25:03.323Z,64.70
2019-02-16T16:31:23.702Z,65.30
2019-02-16T16:37:41.423Z,66.80
2019-02-16T16:43:57.731Z,68.80
2019-02-16T16:50:04.571Z,70.30
2019-02-16T16:56:28.455Z,72.00
2019-02-16T17:02:45.286Z,73.40
2019-02-16T17:08:58.907Z,74.90
2019-02-16T17:15:11.996Z,76.00
2019-02-16T17:21:34.253Z,77.50
2019-02-16T17:27:55.125Z,79.30
2019-02-16T17:34:05.417Z,80.20
2019-02-16T17:40:29.213Z,80.70
2019-02-16T17:46:50.164Z,81.30
2019-02-16T17:52:55.246Z,82.80
2019-02-16T17:59:08.692Z,83.50
2019-02-16T18:05:30.949Z,84.10
2019-02-16T18:11:44.041Z,84.80
2019-02-16T18:17:54.063Z,85.50
2019-02-16T18:24:01.205Z,85.40
2019-02-16T18:30:08.434Z,85.30
2019-02-16T18:36:18.498Z,85.90
2019-02-16T18:42:39.627Z,86.30
2019-02-16T18:48:47.187Z,86.80
2019-02-16T18:55:10.645Z,87.70
2019-02-16T19:01:12.303Z,87.60
2019-02-16T19:07:18.994Z,87.70
2019-02-16T19:13:23.134Z,88.60
2019-02-16T19:19:27.289Z,88.40
2019-02-16T19:25:31.459Z,88.90
2019-02-16T19:31:44.640Z,88.90
2019-02-16T19:37:51.416Z,89.00
2019-02-16T19:50:14.320Z,90.00
2019-02-16T19:56:18.481Z,89.30
2019-02-16T20:08:40.786Z,88.40
2019-02-16T20:14:48.096Z,89.10
2019-02-16T20:20:52.200Z,88.20
2019-02-16T20:27:02.073Z,88.50
2019-02-16T20:33:15.129Z,88.50
2019-02-16T20:39:20.673Z,89.30
2019-02-16T20:45:26.877Z,89.20
2019-02-16T20:51:33.638Z,89.60
2019-02-16T20:57:49.943Z,89.60
2019-02-16T21:10:07.618Z,90.00
2019-02-16T21:16:12.003Z,90.10
2019-02-16T21:22:34.976Z,90.10
2019-02-16T21:28:44.985Z,90.20
2019-02-16T21:34:49.080Z,90.00
2019-02-16T21:40:56.143Z,90.10
2019-02-16T21:47:02.799Z,90.10
2019-02-16T21:53:21.351Z,90.00
2019-02-16T21:59:28.907Z,90.00
2019-02-16T22:05:49.500Z,89.80
2019-02-16T22:11:59.555Z,90.00
2019-02-16T22:18:01.964Z,90.40
2019-02-16T22:24:04.220Z,90.80
2019-02-16T22:30:07.267Z,90.70
2019-02-16T22:36:09.396Z,91.00
2019-02-16T22:42:11.664Z,91.10
2019-02-16T22:48:15.336Z,91.00
2019-02-16T22:54:17.474Z,91.20
2019-02-16T23:00:27.501Z,91.20
2019-02-16T23:06:29.642Z,91.00
2019-02-16T23:12:31.776Z,90.90
2019-02-16T23:18:33.968Z,91.60
2019-02-16T23:24:37.268Z,91.50
2019-02-16T23:30:39.570Z,91.20
2019-02-16T23:36:41.717Z,91.10
2019-02-16T23:42:44.007Z,91.20
2019-02-16T23:48:48.385Z,91.20
2019-02-16T23:54:50.712Z,91.60
